Terminal Aerodrome Forecast
Issued by NWS

Home | Current Version | Previous Version | Text Only | Print | Product List | Glossary On
Versions: 1 2 3 4 5 6 7 8 9 10 11 12 13 14 15 16 17 18 19 20 21 22 23 24 25 26 27 28 29 30 31 32 33 34 35 36 37 38 39 40 41 42 43 44 45 46 47
000
FTUS45 KGJT 190114 AAB
TAFMTJ
TAF AMD
KMTJ 190114Z 1901/1924 00000KT P6SM VCSH FEW020 BKN070
      TEMPO 1901/1903 -SN SCT015 BKN025 OVC050
     FM190300 14004KT P6SM BKN070
     FM191500 VRB04KT P6SM SCT250=

USA.gov is the U.S. government's official web portal to all federal, state and local government web resources and services.